Time;durP1;ratioP1;P1;durP2;ratioP2;P2;SDS_P1;SDS_P2;PMS_P1;PMS_P2;Temp;Humidity;BMP_temperature;BMP_pressure;BME280_temperature;BME280_humidity;BME280_pressure;Samples;Min_cycle;Max_cycle;Signal;HPM_P1;HPM_P2
2024/03/13 00:00:54;;;;;;;7.90;3.88;;;;;;;;;;10489627;28;20037;-63
2024/03/13 00:05:55;;;;;;;7.43;4.53;;;;;;;;;;10494639;28;20401;-62
2024/03/13 00:11:02;;;;;;;5.72;3.63;;;;;;;;;;10487872;28;20033;-61
2024/03/13 00:16:04;;;;;;;8.85;3.67;;;;;;;;;;10473141;28;20496;-60
2024/03/13 00:21:05;;;;;;;7.47;4.30;;;;;;;;;;10491034;28;20314;-61
2024/03/13 00:26:05;;;;;;;4.07;3.45;;;;;;;;;;10486475;28;20061;-60
2024/03/13 00:31:08;;;;;;;7.05;3.38;;;;;;;;;;10480758;28;20029;-60
2024/03/13 00:36:09;;;;;;;4.57;3.42;;;;;;;;;;10492349;28;20136;-60
2024/03/13 00:41:34;;;;;;;12.05;3.72;;;;;;;;;;10466959;28;20050;-60
2024/03/13 00:47:14;;;;;;;8.10;3.20;;;;;;;;;;10477763;28;20028;-60
2024/03/13 00:52:15;;;;;;;4.15;3.47;;;;;;;;;;10469282;28;20443;-60
2024/03/13 00:57:17;;;;;;;4.60;3.40;;;;;;;;;;10499670;28;20098;-60
2024/03/13 01:02:17;;;;;;;5.55;4.13;;;;;;;;;;10488359;28;20064;-59
2024/03/13 01:07:18;;;;;;;7.28;3.60;;;;;;;;;;10474716;28;20511;-61
2024/03/13 01:12:19;;;;;;;5.22;3.50;;;;;;;;;;10490603;28;20059;-60
2024/03/13 01:17:20;;;;;;;6.75;3.70;;;;;;;;;;10475970;28;20045;-60
2024/03/13 01:22:22;;;;;;;5.30;3.60;;;;;;;;;;10474638;28;20029;-60
2024/03/13 01:27:23;;;;;;;4.45;3.42;;;;;;;;;;10477825;28;20041;-60
2024/03/13 01:32:23;;;;;;;3.75;3.45;;;;;;;;;;10491229;28;20028;-60
2024/03/13 01:58:43;;;;;;;5.05;3.45;;;;;;;;;;10471373;28;20025;-61
2024/03/13 02:03:46;;;;;;;5.10;3.35;;;;;;;;;;10474768;28;20403;-62
2024/03/13 02:08:47;;;;;;;8.00;3.47;;;;;;;;;;10487798;28;20032;-62
2024/03/13 02:13:48;;;;;;;6.38;3.15;;;;;;;;;;10486503;28;20124;-61
2024/03/13 02:18:50;;;;;;;6.55;2.85;;;;;;;;;;10470115;28;20024;-61
2024/03/13 02:23:51;;;;;;;4.07;3.20;;;;;;;;;;10465433;28;20035;-61
2024/03/13 02:28:52;;;;;;;5.75;3.13;;;;;;;;;;10482129;28;20028;-60
2024/03/13 02:33:53;;;;;;;3.72;2.72;;;;;;;;;;10476335;28;20055;-61
2024/03/13 02:38:53;;;;;;;3.78;2.90;;;;;;;;;;10485859;28;20176;-60
2024/03/13 02:43:58;;;;;;;3.40;2.90;;;;;;;;;;10484441;28;20025;-60
2024/03/13 02:48:59;;;;;;;3.50;2.85;;;;;;;;;;10477366;28;20025;-60
2024/03/13 02:54:00;;;;;;;5.55;3.10;;;;;;;;;;10484927;28;20407;-61
2024/03/13 02:59:01;;;;;;;5.43;2.90;;;;;;;;;;10469518;28;20029;-61
2024/03/13 03:04:01;;;;;;;4.93;3.00;;;;;;;;;;10485130;28;20032;-60
2024/03/13 03:09:03;;;;;;;5.40;3.42;;;;;;;;;;10484667;28;20095;-61
2024/03/13 03:14:05;;;;;;;5.32;3.50;;;;;;;;;;10477278;28;20029;-61
2024/03/13 03:19:06;;;;;;;3.55;2.92;;;;;;;;;;10469771;28;20149;-60
2024/03/13 03:24:07;;;;;;;4.10;3.00;;;;;;;;;;10472831;28;20446;-60
2024/03/13 03:29:08;;;;;;;3.42;2.65;;;;;;;;;;10481290;28;20074;-60
2024/03/13 03:34:09;;;;;;;3.20;2.53;;;;;;;;;;10487114;28;20044;-61
2024/03/13 03:39:15;;;;;;;3.40;2.95;;;;;;;;;;10491166;28;20029;-61
2024/03/13 03:44:16;;;;;;;4.32;2.88;;;;;;;;;;10465168;28;20040;-61
2024/03/13 03:49:16;;;;;;;3.03;2.40;;;;;;;;;;10485397;28;20028;-60
2024/03/13 03:54:17;;;;;;;3.65;2.80;;;;;;;;;;10492626;28;20446;-60
2024/03/13 03:59:18;;;;;;;3.30;2.75;;;;;;;;;;10480715;28;20051;-62
2024/03/13 04:04:19;;;;;;;2.92;2.70;;;;;;;;;;10479324;28;20064;-62
2024/03/13 04:09:20;;;;;;;2.85;2.65;;;;;;;;;;10483087;28;20033;-61
2024/03/13 04:14:21;;;;;;;2.90;2.65;;;;;;;;;;10493410;28;20040;-60
2024/03/13 04:19:23;;;;;;;2.92;2.63;;;;;;;;;;10494947;28;20109;-60
2024/03/13 04:24:23;;;;;;;3.78;3.00;;;;;;;;;;10484208;28;20491;-60
2024/03/13 04:29:24;;;;;;;2.88;2.55;;;;;;;;;;10479900;28;20033;-60
2024/03/13 04:34:24;;;;;;;2.92;2.67;;;;;;;;;;10475688;28;20246;-60
2024/03/13 04:39:25;;;;;;;3.92;2.70;;;;;;;;;;10488636;28;20032;-60
2024/03/13 04:44:28;;;;;;;2.75;2.50;;;;;;;;;;10461150;28;20017;-60
2024/03/13 04:49:28;;;;;;;3.17;2.65;;;;;;;;;;10487227;28;20476;-59
2024/03/13 04:54:29;;;;;;;3.17;2.70;;;;;;;;;;10490378;28;20040;-61
2024/03/13 04:59:29;;;;;;;6.10;2.97;;;;;;;;;;10491827;28;20039;-61
2024/03/13 05:04:33;;;;;;;2.88;2.58;;;;;;;;;;10476260;28;20021;-62
2024/03/13 05:09:34;;;;;;;2.80;2.35;;;;;;;;;;10478985;28;20526;-61
2024/03/13 05:14:34;;;;;;;2.80;2.53;;;;;;;;;;10481364;28;20037;-60
2024/03/13 05:19:35;;;;;;;3.20;2.60;;;;;;;;;;10492078;28;20028;-60
2024/03/13 05:24:36;;;;;;;2.90;2.22;;;;;;;;;;10487843;28;20052;-61
2024/03/13 05:29:36;;;;;;;2.80;2.50;;;;;;;;;;10491178;28;20047;-60
2024/03/13 05:34:37;;;;;;;5.50;2.38;;;;;;;;;;10479086;28;20534;-60
2024/03/13 05:39:38;;;;;;;2.60;2.40;;;;;;;;;;10477219;28;20044;-61
2024/03/13 05:44:39;;;;;;;2.47;2.28;;;;;;;;;;10475343;28;20024;-60
2024/03/13 05:49:41;;;;;;;2.78;2.58;;;;;;;;;;10479038;28;20119;-60
2024/03/13 05:54:41;;;;;;;4.13;2.50;;;;;;;;;;10477329;28;20132;-60
2024/03/13 05:59:42;;;;;;;2.50;2.30;;;;;;;;;;10475372;28;20288;-59
2024/03/13 06:04:43;;;;;;;2.67;2.47;;;;;;;;;;10488489;28;20107;-59
2024/03/13 06:09:44;;;;;;;3.25;2.40;;;;;;;;;;10465426;28;20028;-59
2024/03/13 06:14:45;;;;;;;2.95;2.65;;;;;;;;;;10484375;28;20035;-60
2024/03/13 06:19:45;;;;;;;2.42;2.22;;;;;;;;;;10486342;28;20020;-60
2024/03/13 06:24:46;;;;;;;3.03;2.35;;;;;;;;;;10475531;28;20028;-60
2024/03/13 06:29:56;;;;;;;3.40;2.53;;;;;;;;;;10482777;28;20029;-59
2024/03/13 06:34:58;;;;;;;5.05;2.10;;;;;;;;;;10479437;28;20056;-60
2024/03/13 06:39:59;;;;;;;2.67;2.47;;;;;;;;;;10478384;28;20029;-60
2024/03/13 06:44:59;;;;;;;4.63;2.45;;;;;;;;;;10468266;28;20106;-60
2024/03/13 06:50:01;;;;;;;5.40;2.20;;;;;;;;;;10472625;28;20028;-61
2024/03/13 06:55:01;;;;;;;7.10;3.50;;;;;;;;;;10462553;28;20039;-60
2024/03/13 07:00:03;;;;;;;16.17;2.83;;;;;;;;;;10483147;28;20020;-60
2024/03/13 07:05:04;;;;;;;9.75;3.03;;;;;;;;;;10471525;28;20032;-60
2024/03/13 07:10:06;;;;;;;7.70;3.78;;;;;;;;;;10479278;28;20032;-60
2024/03/13 07:15:10;;;;;;;14.80;4.13;;;;;;;;;;10471718;28;20032;-62
2024/03/13 07:20:10;;;;;;;11.32;3.90;;;;;;;;;;10486576;28;20056;-62
2024/03/13 07:25:12;;;;;;;23.30;4.90;;;;;;;;;;10487733;28;20025;-61
2024/03/13 07:30:14;;;;;;;8.90;3.80;;;;;;;;;;10483924;28;20172;-62
2024/03/13 07:35:14;;;;;;;6.55;4.07;;;;;;;;;;10468200;28;20059;-60
2024/03/13 07:40:16;;;;;;;7.22;3.83;;;;;;;;;;10473314;28;20025;-62
2024/03/13 07:45:17;;;;;;;9.82;4.05;;;;;;;;;;10474558;28;20055;-59
2024/03/13 07:50:17;;;;;;;5.13;3.83;;;;;;;;;;10486193;28;20082;-59
2024/03/13 07:55:18;;;;;;;6.43;4.28;;;;;;;;;;10474348;28;20029;-60
2024/03/13 08:00:22;;;;;;;8.93;4.35;;;;;;;;;;10486206;28;20031;-59
2024/03/13 08:05:22;;;;;;;17.27;4.22;;;;;;;;;;10472880;28;20471;-59
2024/03/13 08:10:25;;;;;;;7.82;3.83;;;;;;;;;;10488061;28;20032;-59
2024/03/13 08:15:28;;;;;;;6.43;4.28;;;;;;;;;;10493233;28;20036;-60
2024/03/13 08:20:29;;;;;;;6.95;4.10;;;;;;;;;;10493103;28;20024;-60
2024/03/13 08:25:29;;;;;;;8.45;4.38;;;;;;;;;;10492092;28;20024;-60
2024/03/13 08:30:30;;;;;;;7.72;4.32;;;;;;;;;;10488284;28;20032;-60
2024/03/13 08:35:32;;;;;;;6.00;4.40;;;;;;;;;;10488120;28;20328;-59
2024/03/13 08:40:33;;;;;;;9.55;4.55;;;;;;;;;;10492123;28;20699;-60
2024/03/13 08:45:34;;;;;;;6.40;4.00;;;;;;;;;;10490461;28;20230;-60
2024/03/13 08:50:34;;;;;;;9.98;4.10;;;;;;;;;;10479932;28;20349;-60
2024/03/13 08:55:35;;;;;;;7.85;4.03;;;;;;;;;;10469274;28;20044;-59
2024/03/13 09:00:36;;;;;;;8.50;4.00;;;;;;;;;;10497596;28;20035;-62
2024/03/13 09:05:36;;;;;;;6.47;3.80;;;;;;;;;;10488855;28;20047;-60
2024/03/13 09:10:37;;;;;;;5.43;4.10;;;;;;;;;;10491196;28;20516;-59
2024/03/13 09:15:38;;;;;;;7.18;4.18;;;;;;;;;;10476870;28;20024;-59
2024/03/13 09:20:39;;;;;;;6.22;3.75;;;;;;;;;;10489918;28;20484;-59
2024/03/13 09:25:39;;;;;;;5.97;4.15;;;;;;;;;;10491328;28;20028;-61
2024/03/13 09:30:40;;;;;;;6.47;4.13;;;;;;;;;;10483907;28;20037;-59
2024/03/13 09:35:41;;;;;;;6.47;4.47;;;;;;;;;;10483339;28;20071;-59
2024/03/13 09:40:42;;;;;;;7.05;4.15;;;;;;;;;;10483542;28;20467;-59
2024/03/13 09:45:46;;;;;;;6.22;4.03;;;;;;;;;;10490540;28;20052;-59
2024/03/13 09:50:49;;;;;;;5.95;3.63;;;;;;;;;;10489087;28;20384;-59
2024/03/13 09:55:52;;;;;;;4.72;3.63;;;;;;;;;;10488066;28;20032;-59
2024/03/13 10:00:56;;;;;;;6.10;3.97;;;;;;;;;;10475627;28;20032;-59
2024/03/13 10:06:10;;;;;;;9.38;3.88;;;;;;;;;;10478145;28;20060;-59
2024/03/13 10:11:14;;;;;;;5.82;4.05;;;;;;;;;;10468323;28;20028;-59
2024/03/13 10:16:16;;;;;;;5.78;4.28;;;;;;;;;;10480689;28;20036;-59
2024/03/13 10:21:28;;;;;;;9.00;4.53;;;;;;;;;;10487744;28;20492;-60
2024/03/13 10:26:29;;;;;;;6.75;4.20;;;;;;;;;;10489707;28;20480;-59
2024/03/13 10:31:32;;;;;;;5.85;3.97;;;;;;;;;;10473173;28;20506;-59
2024/03/13 10:36:33;;;;;;;5.35;4.10;;;;;;;;;;10487884;28;20102;-59
2024/03/13 10:41:34;;;;;;;5.07;3.67;;;;;;;;;;10475837;28;20085;-59
2024/03/13 10:46:36;;;;;;;9.25;4.25;;;;;;;;;;10487499;28;20031;-60
2024/03/13 10:51:36;;;;;;;8.45;4.40;;;;;;;;;;10479386;28;20500;-59
2024/03/13 10:56:37;;;;;;;5.43;4.07;;;;;;;;;;10478464;28;20039;-59
2024/03/13 11:01:37;;;;;;;4.72;3.90;;;;;;;;;;10486885;28;20021;-59
2024/03/13 11:06:38;;;;;;;7.43;4.28;;;;;;;;;;10477120;28;20387;-59
2024/03/13 11:11:39;;;;;;;7.07;4.20;;;;;;;;;;10486059;28;20472;-59
2024/03/13 11:16:44;;;;;;;6.63;3.92;;;;;;;;;;10485827;28;20032;-59
2024/03/13 11:21:57;;;;;;;4.88;3.72;;;;;;;;;;10481439;28;20096;-59
2024/03/13 11:27:19;;;;;;;5.55;4.03;;;;;;;;;;10483535;28;20389;-59
2024/03/13 11:32:21;;;;;;;4.38;3.65;;;;;;;;;;10475784;28;20124;-59
2024/03/13 11:37:23;;;;;;;6.22;4.20;;;;;;;;;;10481823;28;20392;-59
2024/03/13 11:42:32;;;;;;;5.65;3.78;;;;;;;;;;10479657;28;20028;-59
2024/03/13 11:47:37;;;;;;;6.32;3.42;;;;;;;;;;10482343;28;20060;-59
2024/03/13 11:53:01;;;;;;;4.57;3.97;;;;;;;;;;10495152;28;20020;-59
2024/03/13 11:58:19;;;;;;;5.22;3.65;;;;;;;;;;10483387;28;20476;-59
2024/03/13 12:03:20;;;;;;;3.42;3.13;;;;;;;;;;10480341;28;20074;-59
2024/03/13 12:08:22;;;;;;;4.75;3.22;;;;;;;;;;10477432;28;20033;-59
2024/03/13 12:13:22;;;;;;;5.45;3.53;;;;;;;;;;10485183;28;20083;-59
2024/03/13 12:18:25;;;;;;;5.00;3.50;;;;;;;;;;10467359;28;20029;-59
2024/03/13 12:23:26;;;;;;;6.68;3.40;;;;;;;;;;10469226;28;20504;-59
2024/03/13 12:28:27;;;;;;;4.13;3.53;;;;;;;;;;10481812;28;20044;-60
2024/03/13 12:33:27;;;;;;;3.83;3.40;;;;;;;;;;10478060;28;20035;-59
2024/03/13 12:38:39;;;;;;;4.63;3.28;;;;;;;;;;10472993;28;20053;-60
2024/03/13 12:43:40;;;;;;;5.15;3.28;;;;;;;;;;10475998;28;20091;-59
2024/03/13 12:48:40;;;;;;;6.53;3.22;;;;;;;;;;10488212;28;20040;-59
2024/03/13 12:53:41;;;;;;;5.38;3.33;;;;;;;;;;10489841;28;20020;-59
2024/03/13 12:58:42;;;;;;;4.85;3.05;;;;;;;;;;10479542;28;20488;-60
2024/03/13 13:03:42;;;;;;;10.82;3.15;;;;;;;;;;10491465;28;20032;-60
2024/03/13 13:08:48;;;;;;;4.22;3.53;;;;;;;;;;10479111;28;20029;-60
2024/03/13 13:13:49;;;;;;;6.65;3.20;;;;;;;;;;10480121;28;20041;-59
2024/03/13 13:18:50;;;;;;;7.20;3.47;;;;;;;;;;10487040;28;20024;-60
2024/03/13 13:23:50;;;;;;;3.60;3.28;;;;;;;;;;10471473;28;20059;-59
2024/03/13 13:28:51;;;;;;;5.32;3.20;;;;;;;;;;10466823;28;20233;-59
2024/03/13 13:33:51;;;;;;;3.50;2.88;;;;;;;;;;10468092;28;20028;-60
2024/03/13 13:38:52;;;;;;;4.22;2.80;;;;;;;;;;10475546;28;20396;-60
2024/03/13 13:43:53;;;;;;;4.15;3.35;;;;;;;;;;10474291;28;20541;-59
2024/03/13 13:48:54;;;;;;;7.28;3.45;;;;;;;;;;10476901;28;20045;-59
2024/03/13 13:53:54;;;;;;;3.97;3.10;;;;;;;;;;10481709;28;20265;-60
2024/03/13 13:58:55;;;;;;;3.38;3.08;;;;;;;;;;10486469;28;20661;-59
2024/03/13 14:03:55;;;;;;;5.65;3.53;;;;;;;;;;10466124;28;20422;-59
2024/03/13 14:08:56;;;;;;;6.38;3.50;;;;;;;;;;10476733;28;20078;-59
2024/03/13 14:13:59;;;;;;;5.03;3.45;;;;;;;;;;10480012;28;20032;-59
2024/03/13 14:19:00;;;;;;;4.40;3.30;;;;;;;;;;10472963;28;20028;-59
2024/03/13 14:24:01;;;;;;;3.20;2.90;;;;;;;;;;10473476;28;20480;-58
2024/03/13 14:29:05;;;;;;;4.40;3.25;;;;;;;;;;10473933;28;20380;-59
2024/03/13 14:34:06;;;;;;;5.03;3.42;;;;;;;;;;10480005;23;20075;-66
2024/03/13 14:39:13;;;;;;;4.97;3.10;;;;;;;;;;10447687;28;20033;-66
2024/03/13 14:44:14;;;;;;;3.90;3.17;;;;;;;;;;10432560;28;20065;-66
2024/03/13 14:49:18;;;;;;;8.65;4.03;;;;;;;;;;10399762;28;20079;-67
2024/03/13 14:54:19;;;;;;;5.10;3.58;;;;;;;;;;10399505;28;20501;-63
2024/03/13 14:59:19;;;;;;;7.05;3.38;;;;;;;;;;10397832;28;20032;-66
2024/03/13 15:04:21;;;;;;;5.65;3.70;;;;;;;;;;10400998;28;20042;-66
2024/03/13 15:09:25;;;;;;;4.47;3.42;;;;;;;;;;10400955;28;20088;-66
2024/03/13 15:14:26;;;;;;;6.18;3.70;;;;;;;;;;10402687;28;20116;-66
2024/03/13 15:19:27;;;;;;;5.53;2.95;;;;;;;;;;10402117;28;20819;-66
2024/03/13 15:24:28;;;;;;;3.40;2.97;;;;;;;;;;10403946;28;20041;-66
2024/03/13 15:29:29;;;;;;;3.90;3.50;;;;;;;;;;10406203;28;20021;-66
2024/03/13 15:34:30;;;;;;;4.38;3.00;;;;;;;;;;10399632;28;20099;-66
2024/03/13 15:39:31;;;;;;;3.83;2.97;;;;;;;;;;10399342;28;20040;-67
2024/03/13 15:44:31;;;;;;;4.53;2.97;;;;;;;;;;10403306;28;20025;-67
2024/03/13 15:49:32;;;;;;;3.65;3.03;;;;;;;;;;10399599;28;20037;-66
2024/03/13 15:54:34;;;;;;;5.00;3.63;;;;;;;;;;10409962;28;20033;-66
2024/03/13 15:59:34;;;;;;;4.05;3.05;;;;;;;;;;10406913;28;20112;-63
2024/03/13 16:04:35;;;;;;;3.45;3.15;;;;;;;;;;10408019;28;20044;-59
2024/03/13 16:09:36;;;;;;;4.25;3.05;;;;;;;;;;10406971;28;20032;-61
2024/03/13 16:14:37;;;;;;;5.35;3.13;;;;;;;;;;10409726;28;20041;-61
2024/03/13 16:19:38;;;;;;;4.72;2.97;;;;;;;;;;10411112;28;20029;-60
2024/03/13 16:24:38;;;;;;;3.58;2.78;;;;;;;;;;10413123;28;20044;-60
2024/03/13 16:29:40;;;;;;;5.57;3.03;;;;;;;;;;10401775;28;20021;-67
2024/03/13 16:34:45;;;;;;;4.03;3.00;;;;;;;;;;10407088;28;20136;-62
2024/03/13 16:39:46;;;;;;;4.25;2.95;;;;;;;;;;10413970;28;20124;-64
2024/03/13 16:44:46;;;;;;;4.90;3.10;;;;;;;;;;10408197;28;20396;-61
2024/03/13 16:49:47;;;;;;;3.40;2.88;;;;;;;;;;10410080;28;20061;-66
2024/03/13 16:54:48;;;;;;;4.53;2.85;;;;;;;;;;10407817;28;20037;-66
2024/03/13 16:59:48;;;;;;;3.55;2.85;;;;;;;;;;10412760;28;20068;-65
2024/03/13 17:04:49;;;;;;;4.07;2.72;;;;;;;;;;10408415;28;20025;-59
2024/03/13 17:09:50;;;;;;;4.50;2.50;;;;;;;;;;10412389;28;20060;-62
2024/03/13 17:14:50;;;;;;;3.42;2.72;;;;;;;;;;10424311;28;20112;-59
2024/03/13 17:19:51;;;;;;;4.78;2.58;;;;;;;;;;10407345;28;20044;-60
2024/03/13 17:24:53;;;;;;;5.18;3.10;;;;;;;;;;10430239;28;20087;-60
2024/03/13 17:29:54;;;;;;;2.70;2.45;;;;;;;;;;10408250;28;20017;-59
2024/03/13 17:34:55;;;;;;;4.15;2.17;;;;;;;;;;10417067;28;20054;-60
2024/03/13 17:39:56;;;;;;;2.55;2.35;;;;;;;;;;10395416;28;20478;-63
2024/03/13 17:44:57;;;;;;;3.88;2.85;;;;;;;;;;10415606;28;20021;-65
2024/03/13 17:49:57;;;;;;;3.22;2.38;;;;;;;;;;10400410;28;20025;-64
2024/03/13 17:54:58;;;;;;;3.70;2.38;;;;;;;;;;10404294;28;20033;-64
2024/03/13 18:00:00;;;;;;;3.30;2.70;;;;;;;;;;10400489;28;20413;-66
2024/03/13 18:05:00;;;;;;;2.45;2.25;;;;;;;;;;10425556;28;20024;-65
2024/03/13 18:10:01;;;;;;;2.65;2.45;;;;;;;;;;10413594;28;20021;-66
2024/03/13 18:15:02;;;;;;;2.53;2.30;;;;;;;;;;10408171;28;20439;-65
2024/03/13 18:20:08;;;;;;;7.07;2.15;;;;;;;;;;10407645;28;20396;-66
2024/03/13 18:25:09;;;;;;;2.92;2.60;;;;;;;;;;10405043;28;20116;-64
2024/03/13 18:30:15;;;;;;;3.17;2.60;;;;;;;;;;10396598;28;20037;-67
2024/03/13 18:35:17;;;;;;;5.45;2.63;;;;;;;;;;10404393;28;20053;-66
2024/03/13 18:40:19;;;;;;;4.47;2.35;;;;;;;;;;10403515;28;20431;-66
2024/03/13 18:45:19;;;;;;;3.33;2.70;;;;;;;;;;10400593;28;20029;-64
2024/03/13 18:50:20;;;;;;;7.82;2.60;;;;;;;;;;10398454;28;20477;-66
2024/03/13 18:55:25;;;;;;;2.50;2.30;;;;;;;;;;10396720;28;20744;-66
2024/03/13 19:00:29;;;;;;;3.22;2.55;;;;;;;;;;10394645;28;20599;-67
2024/03/13 19:05:29;;;;;;;4.00;2.90;;;;;;;;;;10388527;28;20032;-65
2024/03/13 19:10:30;;;;;;;5.47;3.05;;;;;;;;;;10403274;28;20048;-66
2024/03/13 19:15:31;;;;;;;3.35;2.65;;;;;;;;;;10396887;28;20048;-66
2024/03/13 19:20:32;;;;;;;3.60;2.60;;;;;;;;;;10404710;28;20044;-65
2024/03/13 19:25:33;;;;;;;4.13;3.25;;;;;;;;;;10406949;28;20026;-65
2024/03/13 19:30:34;;;;;;;5.32;2.65;;;;;;;;;;10406889;28;20374;-63
2024/03/13 19:35:35;;;;;;;5.68;2.90;;;;;;;;;;10400735;28;20159;-64
2024/03/13 19:40:39;;;;;;;5.72;2.72;;;;;;;;;;10401610;28;20033;-63
2024/03/13 19:45:39;;;;;;;3.83;3.22;;;;;;;;;;10398834;28;20053;-63
2024/03/13 19:50:42;;;;;;;3.83;2.78;;;;;;;;;;10416765;28;20140;-64
2024/03/13 19:55:45;;;;;;;3.47;2.70;;;;;;;;;;10404044;28;20042;-63
2024/03/13 20:00:47;;;;;;;3.92;2.97;;;;;;;;;;10395508;28;20063;-63
2024/03/13 20:05:48;;;;;;;4.20;3.00;;;;;;;;;;10422795;28;20039;-62
2024/03/13 20:10:49;;;;;;;4.03;3.17;;;;;;;;;;10428664;28;20033;-63
2024/03/13 20:15:50;;;;;;;4.28;2.72;;;;;;;;;;10425783;28;20049;-59
2024/03/13 20:20:54;;;;;;;4.68;3.22;;;;;;;;;;10399785;28;20314;-63
2024/03/13 20:25:55;;;;;;;7.22;2.88;;;;;;;;;;10403661;28;20541;-63
2024/03/13 20:30:57;;;;;;;4.70;3.13;;;;;;;;;;10414654;28;20456;-63
2024/03/13 20:35:58;;;;;;;6.63;2.90;;;;;;;;;;10405709;28;20061;-60
2024/03/13 20:40:59;;;;;;;2.83;2.58;;;;;;;;;;10402958;28;20175;-69
2024/03/13 20:46:01;;;;;;;3.20;2.65;;;;;;;;;;10397724;28;20037;-68
2024/03/13 20:51:03;;;;;;;3.80;2.90;;;;;;;;;;10403200;28;20017;-68
2024/03/13 20:56:06;;;;;;;4.32;3.13;;;;;;;;;;10394599;28;20522;-68
2024/03/13 21:01:08;;;;;;;7.53;3.10;;;;;;;;;;10409941;28;20421;-68
2024/03/13 21:06:15;;;;;;;10.38;2.88;;;;;;;;;;10404800;28;20073;-68
2024/03/13 21:11:17;;;;;;;3.65;2.58;;;;;;;;;;10399730;28;20525;-67
2024/03/13 21:16:19;;;;;;;3.90;2.88;;;;;;;;;;10415672;28;20148;-68
2024/03/13 21:21:23;;;;;;;3.67;2.53;;;;;;;;;;10390768;28;20377;-68
2024/03/13 21:26:26;;;;;;;6.80;3.08;;;;;;;;;;10388379;28;20449;-68
2024/03/13 21:31:28;;;;;;;5.50;2.50;;;;;;;;;;10410462;28;20065;-68
2024/03/13 21:36:30;;;;;;;3.90;2.92;;;;;;;;;;10405723;28;20041;-68
2024/03/13 21:41:32;;;;;;;2.88;2.38;;;;;;;;;;10399636;28;20033;-68
2024/03/13 21:46:34;;;;;;;3.47;2.50;;;;;;;;;;10403876;28;20095;-68
2024/03/13 21:51:36;;;;;;;2.80;2.28;;;;;;;;;;10406856;28;20047;-69
2024/03/13 21:56:37;;;;;;;4.30;2.40;;;;;;;;;;10416941;28;20033;-69
2024/03/13 22:01:39;;;;;;;4.13;2.60;;;;;;;;;;10399424;28;20068;-68
2024/03/13 22:06:40;;;;;;;2.60;2.30;;;;;;;;;;10406937;28;20340;-71
2024/03/13 22:11:41;;;;;;;3.80;2.70;;;;;;;;;;10401150;28;20045;-68
2024/03/13 22:16:42;;;;;;;3.58;2.80;;;;;;;;;;10415436;28;20069;-65
2024/03/13 22:21:46;;;;;;;9.45;2.83;;;;;;;;;;10385414;28;20036;-65
2024/03/13 22:26:48;;;;;;;4.32;2.95;;;;;;;;;;10396943;28;20183;-64
2024/03/13 22:31:51;;;;;;;3.50;2.72;;;;;;;;;;10391853;28;20497;-64
2024/03/13 22:36:53;;;;;;;6.88;2.55;;;;;;;;;;10388736;28;20045;-64
2024/03/13 22:41:54;;;;;;;4.65;3.25;;;;;;;;;;10413428;28;20025;-64
2024/03/13 22:46:55;;;;;;;8.32;2.50;;;;;;;;;;10399180;28;20087;-61
2024/03/13 22:51:56;;;;;;;7.57;2.30;;;;;;;;;;10410793;28;20056;-64
2024/03/13 22:56:57;;;;;;;4.32;3.03;;;;;;;;;;10410523;28;20082;-66
2024/03/13 23:01:58;;;;;;;3.33;2.40;;;;;;;;;;10414514;28;20151;-65
2024/03/13 23:06:58;;;;;;;5.18;2.47;;;;;;;;;;10418543;28;20029;-66
2024/03/13 23:11:59;;;;;;;2.13;1.92;;;;;;;;;;10411187;28;20037;-66
2024/03/13 23:16:59;;;;;;;3.47;2.55;;;;;;;;;;10390962;28;20025;-67
2024/03/13 23:22:00;;;;;;;6.90;2.40;;;;;;;;;;10395388;28;20025;-67
2024/03/13 23:27:02;;;;;;;3.03;2.55;;;;;;;;;;10402982;28;20026;-65
2024/03/13 23:32:02;;;;;;;4.13;2.72;;;;;;;;;;10398350;28;20018;-62
2024/03/13 23:37:04;;;;;;;3.33;2.40;;;;;;;;;;10404457;28;20050;-66
2024/03/13 23:42:05;;;;;;;9.70;2.63;;;;;;;;;;10399024;28;20076;-65
2024/03/13 23:47:06;;;;;;;2.38;2.17;;;;;;;;;;10416071;28;20035;-64
2024/03/13 23:52:10;;;;;;;2.38;2.17;;;;;;;;;;10398915;28;20048;-64
2024/03/13 23:57:10;;;;;;;8.07;2.30;;;;;;;;;;10427675;28;20106;-65
